Pagina principale
METAR-TAF:

METAR-TAF

Aeroporti :

Trieste / Ronchi dei Legionari, Italia

Aeroporto di Trieste-Ronchi dei Legionari

latitudine: 45-49N, longitudine: 013-29E, altezza: 12 m

Osservazione

Il bollettino è stato emesso 34 minuti fa, alle 00:20 UTC
Vento 2 kt da ovest/nord-ovest
Temperature 5°C
Umidità 93%
Pressione 1002 hPa
Visibilità: 4000 m
foschia

METAR: LIPQ 170020Z AUTO 29002KT 4000 BR BKN017/// OVC034/// 05/04 Q1002

Ora: 01:54 (00:54 UTC)

Previsione

Il bollettino è stato emesso 1 ora e 54 minuti fa, alle 23:00 UTC
Previsione valida dal 17 alle 00 UTC al 17 alle 24 UTC
Vento 5 kt da direzioni variabili
Visibilità: 7000 m
Nuvoloso ad un'altezza di 2500 ft
Temporaneamente
dal 17 alle 00 UTC al 17 alle 06 UTC
Visibilità: 2000 m
foschia
Evoluzione graduale
dal 17 alle 09 UTC al 17 alle 12 UTC
Vento 10 kt da nord-ovest

TAF: LIPQ 162300Z 1700/1724 VRB05KT 7000 BKN025 TEMPO 1700/1706 2000 BR BECMG 1709/1712 32010KT

Osservazioni e previsioni meteorologiche di più di 4000 aeroporti (messaggi METAR e TAF).

Le stazioni disponibili sono rappresentate dai dischi gialli e rossi sulla carta.

Puntare il mouse per vedere il nome della stazione.

Clicca sopra per visualizzare le osservazioni e previsioni meteorologiche.

Per cambiare la mappa : fare clic sui pulsanti verdi con una croce nera per ingrandire, il pulsante verde con un trattino per diminuire, o sulla freccia verde per le mappe adiacenti.


METAR-TAF: